Time;durP1;ratioP1;P1;durP2;ratioP2;P2;SDS_P1;SDS_P2;PMS_P1;PMS_P2;Temp;Humidity;BMP_temperature;BMP_pressure;BME280_temperature;BME280_humidity;BME280_pressure;Samples;Min_cycle;Max_cycle;Signal;HPM_P1;HPM_P2
2022/05/02 00:00:28;;;;;;;4.67;3.23;;;;;;;12.72;64.95;94885.56;5098473;28;20189;-82
2022/05/02 00:02:54;;;;;;;5.23;3.10;;;;;;;13.01;65.72;94952.66;5098452;28;20197;-82
2022/05/02 00:05:19;;;;;;;4.03;3.60;;;;;;;12.57;66.18;94906.28;5101408;28;20169;-81
2022/05/02 00:07:45;;;;;;;5.37;3.13;;;;;;;12.87;66.54;94945.94;5101733;28;20224;-82
2022/05/02 00:10:12;;;;;;;5.23;3.53;;;;;;;12.79;67.09;94947.06;5104182;28;20181;-82
2022/05/02 00:12:37;;;;;;;4.37;3.33;;;;;;;12.74;67.62;94945.06;5100185;28;20208;-82
2022/05/02 00:15:03;;;;;;;4.63;3.80;;;;;;;12.82;67.19;94942.13;5102465;28;20208;-81
2022/05/02 00:20:13;;;;;;;4.87;3.60;;;;;;;12.55;67.95;94922.34;5072228;28;20618;-84
2022/05/02 00:22:40;;;;;;;5.77;4.53;;;;;;;12.72;67.53;94936.56;5072470;28;20171;-81
2022/05/02 00:25:06;;;;;;;6.70;4.33;;;;;;;12.72;67.70;94933.09;5073143;28;20210;-81
2022/05/02 00:27:32;;;;;;;4.70;3.93;;;;;;;12.75;67.49;94938.75;5072537;28;20178;-81
2022/05/02 00:29:57;;;;;;;5.10;3.97;;;;;;;12.64;67.50;94922.84;5072010;28;20226;-81
2022/05/02 00:32:23;;;;;;;9.63;3.63;;;;;;;12.50;67.70;94909.00;5072368;28;20586;-81
2022/05/02 00:34:48;;;;;;;10.23;4.17;;;;;;;12.55;67.94;94916.25;5072229;28;20163;-81
2022/05/02 00:37:15;;;;;;;4.27;3.77;;;;;;;12.65;67.90;94930.56;5072174;28;20178;-81
2022/05/02 00:39:41;;;;;;;5.87;3.70;;;;;;;12.64;67.97;94942.13;5072815;28;20181;-81
2022/05/02 00:42:07;;;;;;;4.50;3.50;;;;;;;12.47;67.79;94896.22;5072121;28;20649;-81
2022/05/02 00:44:32;;;;;;;6.13;3.83;;;;;;;12.65;67.73;94921.81;5072627;28;20185;-82
2022/05/02 00:46:58;;;;;;;4.63;3.53;;;;;;;12.76;67.70;94932.44;5082854;28;20181;-82
2022/05/02 00:49:23;;;;;;;6.50;3.40;;;;;;;12.90;66.96;94927.00;5100184;28;20566;-81
2022/05/02 00:51:49;;;;;;;4.13;3.73;;;;;;;12.70;67.04;94895.56;5098401;28;20173;-82
2022/05/02 00:54:14;;;;;;;5.47;4.00;;;;;;;12.87;66.83;94927.44;5101198;28;20189;-81
2022/05/02 00:56:40;;;;;;;6.20;3.27;;;;;;;12.54;66.86;94878.47;5099618;28;20182;-81
2022/05/02 00:59:08;;;;;;;8.60;3.33;;;;;;;12.76;67.01;94921.06;5100222;28;20173;-80
2022/05/02 01:01:34;;;;;;;4.70;3.77;;;;;;;12.69;66.95;94926.44;5103414;28;20694;-80
2022/05/02 01:03:59;;;;;;;4.93;3.90;;;;;;;12.66;67.17;94907.59;5106812;28;20186;-80
2022/05/02 01:09:09;;;;;;;5.30;3.20;;;;;;;12.64;66.86;94888.50;5103055;28;20177;-80
2022/05/02 01:11:34;;;;;;;4.10;3.20;;;;;;;12.58;66.87;94887.56;5103209;28;20165;-80
2022/05/02 01:14:00;;;;;;;8.43;3.77;;;;;;;12.66;66.94;94883.81;5102384;28;20196;-81
2022/05/02 01:16:28;;;;;;;6.50;3.20;;;;;;;12.83;66.79;94906.75;5096746;28;20169;-80
2022/05/02 01:18:56;;;;;;;3.70;3.30;;;;;;;12.90;66.39;94906.66;5091871;28;20173;-81
2022/05/02 01:21:24;;;;;;;5.30;3.50;;;;;;;12.85;66.50;94909.19;5092074;28;20189;-80
2022/05/02 01:23:52;;;;;;;6.97;3.73;;;;;;;12.79;66.56;94888.94;5091806;28;20176;-80
2022/05/02 01:26:18;;;;;;;4.80;3.00;;;;;;;12.68;67.25;94892.34;5092004;28;20245;-81
2022/05/02 01:28:48;;;;;;;5.10;3.10;;;;;;;12.68;67.15;94902.91;5100616;28;20201;-80
2022/05/02 01:31:15;;;;;;;6.87;3.30;;;;;;;12.71;66.97;94889.25;5102117;28;20221;-81
2022/05/02 01:33:42;;;;;;;6.43;3.23;;;;;;;12.61;67.30;94899.53;5103516;28;20188;-81
2022/05/02 01:36:08;;;;;;;8.10;3.40;;;;;;;12.59;67.44;94888.38;5099785;28;20173;-81
2022/05/02 01:38:35;;;;;;;10.53;3.87;;;;;;;12.55;67.68;94889.84;5107067;28;20169;-81
2022/05/02 01:41:01;;;;;;;7.40;2.90;;;;;;;12.57;67.57;94879.88;5110140;28;20193;-81
2022/05/02 01:43:27;;;;;;;7.47;3.23;;;;;;;12.33;67.52;94844.63;5116506;27;20638;-81
2022/05/02 01:45:53;;;;;;;4.37;2.70;;;;;;;12.52;67.76;94883.19;5115885;27;20185;-81
2022/05/02 01:48:18;;;;;;;4.83;3.23;;;;;;;12.37;67.66;94859.78;5115699;28;20169;-81
2022/05/02 01:50:44;;;;;;;4.67;2.70;;;;;;;12.58;67.51;94873.56;5115617;28;20541;-81
2022/05/02 01:53:09;;;;;;;4.03;3.37;;;;;;;12.13;68.04;94829.00;5115541;28;20173;-82
2022/05/02 01:55:35;;;;;;;4.70;3.17;;;;;;;12.46;68.14;94874.31;5115532;28;20157;-81
2022/05/02 01:58:00;;;;;;;6.73;3.90;;;;;;;12.41;68.23;94876.00;5108374;28;20176;-82
2022/05/02 02:00:25;;;;;;;4.70;3.20;;;;;;;12.34;68.70;94877.91;5105923;28;20181;-81
2022/05/02 02:02:51;;;;;;;9.03;3.63;;;;;;;12.14;68.20;94830.63;5102819;28;20919;-80
2022/05/02 02:08:00;;;;;;;8.13;3.60;;;;;;;12.34;68.50;94862.09;5103373;28;20203;-81
2022/05/02 02:10:26;;;;;;;3.23;2.73;;;;;;;12.32;68.61;94875.50;5106979;28;20260;-81
2022/05/02 02:12:52;;;;;;;6.30;3.13;;;;;;;12.31;68.87;94851.94;5115457;28;20158;-81
2022/05/02 02:15:17;;;;;;;4.03;3.63;;;;;;;12.19;69.09;94856.38;5115173;28;20165;-81
2022/05/02 02:17:43;;;;;;;5.57;3.50;;;;;;;12.23;69.42;94857.53;5107697;28;20178;-81
2022/05/02 02:20:10;;;;;;;6.63;3.43;;;;;;;12.10;68.85;94818.91;5100753;28;20186;-80
2022/05/02 02:22:36;;;;;;;3.30;2.83;;;;;;;12.37;68.89;94848.41;5102882;28;20231;-80
2022/05/02 02:25:03;;;;;;;4.47;3.20;;;;;;;12.17;68.22;94809.09;5101030;28;20188;-80
2022/05/02 02:27:29;;;;;;;5.93;3.47;;;;;;;12.42;68.32;94841.47;5094800;28;20162;-80
2022/05/02 02:29:54;;;;;;;5.00;3.40;;;;;;;12.33;68.79;94847.28;5094329;28;20225;-80
2022/05/02 02:32:20;;;;;;;6.73;3.27;;;;;;;11.84;69.39;94787.56;5098492;28;20185;-80
2022/05/02 02:34:45;;;;;;;5.00;3.10;;;;;;;11.96;69.92;94814.81;5107495;28;20178;-80
2022/05/02 02:37:11;;;;;;;7.77;3.67;;;;;;;12.23;69.44;94836.41;5105845;28;20187;-80
2022/05/02 02:39:36;;;;;;;6.07;4.10;;;;;;;11.96;69.32;94783.16;5099424;28;20180;-80
2022/05/02 02:42:02;;;;;;;5.47;3.70;;;;;;;12.32;69.08;94827.97;5101030;28;20733;-81
2022/05/02 02:44:28;;;;;;;6.57;4.40;;;;;;;12.32;69.18;94819.25;5097275;28;20181;-80
2022/05/02 02:46:53;;;;;;;6.20;4.10;;;;;;;12.36;69.07;94823.06;5094677;28;20162;-80
2022/05/02 02:49:19;;;;;;;6.80;4.10;;;;;;;12.24;69.54;94817.72;5094098;28;20230;-80
2022/05/02 02:51:45;;;;;;;5.93;3.90;;;;;;;12.20;69.69;94823.66;5094625;28;20585;-81
2022/05/02 02:54:12;;;;;;;5.57;4.07;;;;;;;12.16;70.04;94828.59;5094094;28;20199;-81
2022/05/02 02:56:37;;;;;;;5.00;4.13;;;;;;;11.76;69.98;94761.50;5094014;28;20169;-81
2022/05/02 02:59:03;;;;;;;6.40;4.17;;;;;;;12.06;70.16;94820.38;5094079;28;20166;-81
2022/05/02 03:01:29;;;;;;;10.47;4.40;;;;;;;11.93;70.56;94813.44;5104174;28;20196;-81
2022/05/02 03:03:54;;;;;;;5.27;4.10;;;;;;;11.95;70.81;94815.81;5104238;28;20193;-81
2022/05/02 03:06:20;;;;;;;7.27;4.50;;;;;;;11.96;70.56;94814.81;5101712;28;20643;-81
2022/05/02 03:08:47;;;;;;;5.60;4.37;;;;;;;11.97;70.53;94800.59;5103852;28;20184;-81
2022/05/02 03:11:12;;;;;;;5.73;4.40;;;;;;;11.88;70.85;94802.72;5104272;28;20640;-80
2022/05/02 03:13:38;;;;;;;8.33;4.27;;;;;;;11.92;70.98;94822.38;5104448;27;20168;-80
2022/05/02 03:16:04;;;;;;;6.40;3.77;;;;;;;11.92;71.08;94808.38;5107016;28;20182;-80
2022/05/02 03:18:31;;;;;;;6.40;4.23;;;;;;;11.59;70.77;94761.19;5096554;28;20173;-80
2022/05/02 03:20:57;;;;;;;6.67;4.87;;;;;;;11.89;70.97;94814.06;5098062;28;20193;-81
2022/05/02 03:23:23;;;;;;;7.60;3.83;;;;;;;11.49;71.20;94760.94;5105270;28;21102;-81
2022/05/02 03:25:48;;;;;;;5.80;3.53;;;;;;;11.84;71.17;94809.47;5100504;28;20257;-81
2022/05/02 03:28:14;;;;;;;5.93;3.77;;;;;;;11.87;71.30;94810.84;5100952;28;20188;-81
2022/05/02 03:30:40;;;;;;;4.70;3.70;;;;;;;11.80;71.04;94802.19;5106784;28;20315;-80
2022/05/02 03:33:06;;;;;;;9.40;3.80;;;;;;;11.81;71.29;94822.28;5101864;28;20735;-81
2022/05/02 03:35:31;;;;;;;7.50;4.57;;;;;;;11.73;71.53;94810.97;5106942;28;20173;-81
2022/05/02 03:37:57;;;;;;;6.43;4.47;;;;;;;11.62;71.42;94790.59;5104151;28;20174;-81
2022/05/02 03:40:23;;;;;;;4.77;3.67;;;;;;;11.72;71.44;94809.34;5104030;28;20193;-80
2022/05/02 03:42:48;;;;;;;4.70;3.80;;;;;;;11.71;71.13;94823.56;5100881;28;20200;-81
2022/05/02 03:45:14;;;;;;;7.27;4.13;;;;;;;11.69;71.46;94819.53;5100776;28;20208;-81
2022/05/02 03:47:39;;;;;;;4.53;3.67;;;;;;;11.32;72.10;94772.03;5091907;28;20235;-80
2022/05/02 03:50:05;;;;;;;4.23;3.67;;;;;;;11.52;72.17;94818.47;5093436;28;20165;-80
2022/05/02 03:52:31;;;;;;;6.60;3.90;;;;;;;11.60;71.79;94815.56;5099168;28;20184;-81
2022/05/02 03:54:56;;;;;;;8.13;3.23;;;;;;;11.54;71.94;94822.50;5102503;28;20197;-81
2022/05/02 03:57:22;;;;;;;11.90;4.27;;;;;;;11.15;72.19;94763.06;5104120;28;20173;-82
2022/05/02 03:59:47;;;;;;;5.00;3.87;;;;;;;11.47;71.66;94800.69;5104089;28;20261;-81
2022/05/02 04:02:13;;;;;;;4.60;3.07;;;;;;;11.66;71.39;94819.97;5102082;28;20242;-82
2022/05/02 04:04:39;;;;;;;9.33;3.80;;;;;;;11.47;71.32;94787.50;5105737;28;20177;-81
2022/05/02 04:07:05;;;;;;;4.97;3.73;;;;;;;11.79;70.84;94825.13;5113567;28;20165;-82
2022/05/02 04:09:31;;;;;;;12.20;4.17;;;;;;;11.76;71.06;94822.16;5113064;28;20168;-80
2022/05/02 04:11:59;;;;;;;6.80;3.60;;;;;;;11.94;70.53;94827.41;5112697;28;20173;-80
2022/05/02 04:14:25;;;;;;;5.77;4.20;;;;;;;12.19;69.30;94825.50;5101632;28;20182;-80
2022/05/02 04:16:50;;;;;;;6.87;5.03;;;;;;;12.09;68.81;94785.66;5099496;28;20177;-80
2022/05/02 04:19:16;;;;;;;6.97;3.30;;;;;;;12.29;68.32;94806.50;5100979;28;20183;-80
2022/05/02 04:21:42;;;;;;;10.57;5.93;;;;;;;12.29;67.33;94778.25;5106966;28;20200;-81
2022/05/02 04:24:08;;;;;;;6.87;3.60;;;;;;;12.54;66.81;94793.97;5112877;28;20203;-80
2022/05/02 04:26:35;;;;;;;4.80;3.80;;;;;;;12.98;65.73;94835.00;5103156;28;20195;-80
2022/05/02 04:29:00;;;;;;;10.00;3.30;;;;;;;12.95;65.50;94832.84;5100734;28;20713;-80
2022/05/02 04:31:26;;;;;;;4.53;3.67;;;;;;;13.02;65.09;94820.31;5099049;28;20213;-80
2022/05/02 04:33:51;;;;;;;4.87;3.50;;;;;;;12.75;65.02;94788.19;5104158;28;20234;-81
2022/05/02 04:36:17;;;;;;;6.23;3.70;;;;;;;13.04;64.71;94831.47;5106271;28;20180;-81
2022/05/02 04:38:43;;;;;;;7.03;3.53;;;;;;;13.43;64.34;94834.53;5102592;28;20651;-80
2022/05/02 04:41:11;;;;;;;5.50;3.17;;;;;;;13.79;62.17;94842.25;5096504;28;20193;-80
2022/05/02 04:43:37;;;;;;;5.47;3.40;;;;;;;13.70;61.95;94837.53;5102119;28;20174;-80
2022/05/02 04:46:02;;;;;;;9.17;4.50;;;;;;;13.93;61.34;94842.81;5099104;28;20305;-80
2022/05/02 04:48:28;;;;;;;4.43;3.47;;;;;;;14.16;60.20;94849.94;5098757;28;20304;-80
2022/05/02 04:50:53;;;;;;;7.90;3.77;;;;;;;14.44;59.79;94844.75;5098204;28;20169;-80
2022/05/02 04:53:19;;;;;;;5.83;3.30;;;;;;;14.55;58.96;94849.19;5095189;28;20173;-80
2022/05/02 04:55:44;;;;;;;8.30;3.43;;;;;;;14.58;58.29;94832.03;5098994;28;20192;-80
2022/05/02 04:58:10;;;;;;;7.97;3.53;;;;;;;14.25;58.88;94803.53;5102560;28;20176;-80
2022/05/02 05:00:35;;;;;;;7.50;3.03;;;;;;;14.68;58.12;94840.97;5102714;28;20193;-80
2022/05/02 05:03:03;;;;;;;5.90;3.37;;;;;;;14.97;58.24;94831.16;5103627;28;20185;-80
2022/05/02 05:05:29;;;;;;;8.73;3.70;;;;;;;15.44;55.90;94841.50;5099869;28;20173;-81
2022/05/02 05:07:54;;;;;;;6.53;3.63;;;;;;;15.42;55.36;94840.91;5108409;28;20581;-81
2022/05/02 05:10:20;;;;;;;15.57;4.03;;;;;;;15.15;55.82;94832.78;5112267;28;20169;-80
2022/05/02 05:12:51;;;;;;;8.87;4.17;;;;;;;15.46;55.75;94842.06;5101406;28;20173;-81
2022/05/02 05:18:17;;;;;;;3.47;3.00;;;;;;;16.12;52.88;94806.69;5102609;28;20177;-81
2022/05/02 05:21:03;;;;;;;4.67;3.60;;;;;;;16.89;51.94;94837.63;5114837;28;20189;-81
2022/05/02 05:23:37;;;;;;;4.37;3.43;;;;;;;17.41;49.81;94837.84;5116433;28;20166;-80
2022/05/02 05:26:07;;;;;;;11.13;4.10;;;;;;;17.55;49.39;94836.41;5116032;28;20168;-81
2022/05/02 05:28:51;;;;;;;4.47;3.67;;;;;;;17.46;49.58;94818.47;5116515;28;20153;-81
2022/05/02 05:31:29;;;;;;;5.50;4.10;;;;;;;18.94;45.83;94829.69;5115908;28;20296;-81
2022/05/02 05:34:31;;;;;;;10.98;3.88;;;;;;;19.61;44.59;94831.41;5115893;28;20851;-81
2022/05/02 05:37:15;;;;;;;8.43;3.83;;;;;;;20.11;43.12;94827.09;5105342;28;20185;-81
2022/05/02 05:40:03;;;;;;;7.88;3.72;;;;;;;20.84;41.64;94820.19;5105901;28;20177;-81
2022/05/02 05:42:38;;;;;;;9.52;4.05;;;;;;;20.03;42.94;94831.09;5106885;28;20605;-81
2022/05/02 05:45:10;;;;;;;11.98;3.95;;;;;;;19.99;42.89;94827.34;5104217;28;20173;-81
2022/05/02 05:48:02;;;;;;;4.38;2.85;;;;;;;20.06;42.79;94829.78;5107937;28;20168;-81
2022/05/02 05:50:36;;;;;;;5.53;3.45;;;;;;;19.95;42.64;94824.44;5083691;28;20232;-81
2022/05/02 05:53:19;;;;;;;5.60;3.28;;;;;;;19.38;43.88;94823.88;5102618;28;20166;-81
2022/05/02 05:55:56;;;;;;;5.88;3.33;;;;;;;18.79;45.26;94818.97;5103198;28;20174;-81
2022/05/02 05:58:21;;;;;;;5.78;3.50;;;;;;;18.80;45.66;94821.41;5103292;28;20179;-80
2022/05/02 06:00:50;;;;;;;6.03;3.13;;;;;;;18.87;45.66;94825.66;5103574;28;20193;-80
2022/05/02 06:03:21;;;;;;;5.55;3.72;;;;;;;19.35;45.44;94825.25;5100432;28;20178;-82
2022/05/02 06:05:48;;;;;;;6.78;3.05;;;;;;;18.72;45.79;94815.78;5100567;28;20605;-80
2022/05/02 06:08:22;;;;;;;8.10;3.28;;;;;;;19.20;46.57;94809.19;5095285;28;20245;-81
2022/05/02 06:10:52;;;;;;;4.65;3.15;;;;;;;19.16;44.67;94810.78;5097646;28;20169;-81
2022/05/02 06:13:18;;;;;;;5.55;3.20;;;;;;;18.89;45.42;94812.88;5107262;28;20572;-81
2022/05/02 06:18:37;;;;;;;5.93;3.80;;;;;;;18.30;46.33;94781.19;5104477;28;20221;-81
2022/05/02 06:21:04;;;;;;;6.93;3.65;;;;;;;18.07;47.08;94817.84;5099659;28;20214;-81
2022/05/02 06:23:34;;;;;;;10.75;3.30;;;;;;;17.82;47.87;94808.91;5106044;28;20182;-81
2022/05/02 06:26:02;;;;;;;7.80;3.60;;;;;;;17.46;48.70;94813.16;5101964;28;20197;-81
2022/05/02 06:28:34;;;;;;;8.68;3.47;;;;;;;17.11;49.33;94811.81;5109012;28;20165;-81
2022/05/02 06:31:01;;;;;;;5.10;3.35;;;;;;;16.92;50.72;94797.25;5109696;27;20223;-81
2022/05/02 06:33:28;;;;;;;5.00;3.20;;;;;;;17.18;49.90;94800.94;5099795;28;20553;-81
2022/05/02 06:36:16;;;;;;;3.63;3.03;;;;;;;17.40;49.33;94808.84;5106571;28;20628;-81
2022/05/02 06:38:51;;;;;;;7.05;3.40;;;;;;;17.40;49.18;94800.84;5094840;28;20164;-81
2022/05/02 06:41:38;;;;;;;5.90;3.20;;;;;;;17.39;49.31;94797.38;5104782;28;20381;-81
2022/05/02 06:44:50;;;;;;;6.33;3.60;;;;;;;17.15;50.40;94778.31;5096327;28;20177;-81
2022/05/02 06:47:21;;;;;;;4.05;3.63;;;;;;;17.49;50.70;94800.13;5102721;28;20168;-83
2022/05/02 06:49:51;;;;;;;5.97;3.42;;;;;;;17.69;49.23;94775.53;5106599;28;20184;-81
2022/05/02 06:52:23;;;;;;;6.75;3.33;;;;;;;17.94;48.25;94766.91;5100792;28;20161;-84
2022/05/02 06:54:54;;;;;;;4.35;3.47;;;;;;;17.84;49.75;94774.81;5086699;28;20170;-82
2022/05/02 06:57:54;;;;;;;9.90;4.88;;;;;;;17.52;49.37;94769.53;5105139;28;20655;-82
2022/05/02 07:00:20;;;;;;;6.15;3.70;;;;;;;17.21;50.41;94771.97;5101960;28;20180;-81
2022/05/02 07:03:06;;;;;;;5.57;3.55;;;;;;;17.12;50.14;94770.03;5094326;28;20173;-80
2022/05/02 07:05:45;;;;;;;10.13;4.45;;;;;;;17.21;50.70;94776.50;5100987;28;20258;-83
2022/05/02 07:08:22;;;;;;;6.45;4.03;;;;;;;17.09;52.17;94758.03;5097585;28;20171;-84
2022/05/02 07:10:56;;;;;;;8.15;4.47;;;;;;;16.69;50.37;94763.00;5110597;27;20212;-81
2022/05/02 07:13:21;;;;;;;4.75;4.30;;;;;;;16.65;50.45;94761.88;5099507;28;20169;-83
2022/05/02 07:15:50;;;;;;;6.15;4.65;;;;;;;16.29;51.46;94772.09;5101915;28;20174;-83
2022/05/02 07:18:15;;;;;;;7.80;5.17;;;;;;;15.88;53.28;94775.28;5100484;28;20173;-81
2022/05/02 07:20:56;;;;;;;6.65;4.50;;;;;;;15.77;52.82;94769.84;5100481;28;20241;-79
2022/05/02 07:23:46;;;;;;;12.40;5.23;;;;;;;15.34;54.00;94769.69;5101404;28;20181;-81
2022/05/02 07:26:18;;;;;;;10.33;5.17;;;;;;;14.80;54.78;94697.78;5102240;28;20676;-80
2022/05/02 07:28:48;;;;;;;7.50;4.87;;;;;;;15.14;54.71;94733.06;5102489;28;20170;-82
2022/05/02 07:31:24;;;;;;;5.47;4.60;;;;;;;15.15;54.79;94761.19;5103612;28;20213;-80
2022/05/02 07:33:51;;;;;;;13.20;5.10;;;;;;;15.09;55.17;94762.16;5101913;28;20247;-82
2022/05/02 07:36:24;;;;;;;13.23;5.03;;;;;;;14.96;55.36;94759.84;5098222;28;20181;-82
2022/05/02 07:39:01;;;;;;;5.13;3.97;;;;;;;15.03;55.28;94752.53;5098201;28;20255;-80
2022/05/02 07:41:27;;;;;;;6.80;4.50;;;;;;;14.68;55.47;94734.19;5098993;28;20188;-79
2022/05/02 07:44:06;;;;;;;6.97;4.07;;;;;;;15.16;55.39;94738.94;5099053;28;20192;-80
2022/05/02 07:46:35;;;;;;;3.77;3.27;;;;;;;15.51;54.70;94743.97;5101439;28;20536;-80
2022/05/02 07:49:03;;;;;;;5.87;2.90;;;;;;;15.54;53.58;94737.41;5098837;28;20974;-79
2022/05/02 07:51:29;;;;;;;5.23;3.77;;;;;;;15.70;53.88;94749.84;5110683;28;20164;-81
2022/05/02 07:53:58;;;;;;;4.67;3.53;;;;;;;15.89;53.24;94768.94;5113175;28;20177;-79
2022/05/02 07:56:27;;;;;;;6.07;3.00;;;;;;;15.62;52.53;94763.53;5104822;28;20243;-79
2022/05/02 07:58:54;;;;;;;9.83;4.00;;;;;;;15.51;53.18;94773.16;5094102;28;20219;-80
2022/05/02 08:01:21;;;;;;;5.63;3.37;;;;;;;15.66;52.66;94775.25;5096762;28;20280;-80
2022/05/02 08:03:47;;;;;;;4.43;3.27;;;;;;;15.61;52.95;94753.94;5095772;28;20181;-81
2022/05/02 08:06:31;;;;;;;5.17;4.00;;;;;;;15.88;52.71;94746.88;5102525;28;20173;-80
2022/05/02 08:09:12;;;;;;;5.40;3.60;;;;;;;16.18;51.62;94778.31;5095188;28;20230;-80
2022/05/02 08:11:59;;;;;;;4.47;3.40;;;;;;;16.19;51.46;94777.28;5096445;28;20173;-81
2022/05/02 08:14:52;;;;;;;4.33;3.50;;;;;;;15.95;52.61;94771.41;5094078;28;20260;-80
2022/05/02 08:17:47;;;;;;;5.17;3.77;;;;;;;16.02;50.60;94772.03;5094677;28;20179;-80
2022/05/02 08:20:24;;;;;;;6.90;3.73;;;;;;;15.95;50.23;94739.53;5089583;28;20671;-81
2022/05/02 08:29:00;;;;;;;6.10;4.20;;;;;;;16.96;49.27;94761.91;5086239;28;20224;-80
2022/05/02 08:31:41;;;;;;;7.97;4.23;;;;;;;17.12;47.76;94730.94;5094953;28;20216;-83
2022/05/02 08:34:28;;;;;;;6.30;4.38;;;;;;;17.71;47.64;94758.25;5097386;28;20176;-80
2022/05/02 08:36:57;;;;;;;5.03;3.70;;;;;;;18.18;46.44;94767.28;5089173;28;20192;-80
2022/05/02 08:39:36;;;;;;;6.95;3.80;;;;;;;18.14;44.82;94744.88;5095745;28;20251;-80
2022/05/02 08:42:26;;;;;;;7.88;4.13;;;;;;;17.85;44.79;94750.59;5088283;28;20207;-80
2022/05/02 08:45:27;;;;;;;6.53;4.43;;;;;;;17.44;44.93;94756.72;5095428;28;20173;-81
2022/05/02 08:48:16;;;;;;;7.72;4.72;;;;;;;16.86;46.45;94751.22;5090891;28;20252;-79
2022/05/02 08:51:06;;;;;;;8.27;5.30;;;;;;;16.90;47.06;94736.34;5098688;28;20260;-81
2022/05/02 08:53:38;;;;;;;9.70;5.07;;;;;;;17.04;45.40;94741.25;5096806;28;22045;-79
2022/05/02 08:56:21;;;;;;;7.43;4.77;;;;;;;17.03;45.61;94745.75;5095762;28;20172;-82
2022/05/02 08:59:06;;;;;;;7.50;5.10;;;;;;;16.82;45.06;94696.09;5100573;28;20198;-86
2022/05/02 09:01:48;;;;;;;8.38;4.57;;;;;;;16.92;45.10;94733.44;5115381;27;20243;-87
2022/05/02 09:04:41;;;;;;;8.05;4.63;;;;;;;16.81;44.98;94742.34;5085689;28;20173;-81
2022/05/02 09:07:33;;;;;;;7.90;4.40;;;;;;;16.66;46.11;94739.56;5101057;28;20661;-83
2022/05/02 09:09:59;;;;;;;11.68;4.32;;;;;;;16.79;45.61;94739.16;5091284;28;20617;-80
2022/05/02 09:12:45;;;;;;;6.90;3.63;;;;;;;16.63;45.57;94727.56;5093531;28;20258;-77
2022/05/02 09:15:17;;;;;;;6.07;3.67;;;;;;;16.83;46.04;94727.78;5097617;28;20188;-79
2022/05/02 09:17:50;;;;;;;7.50;4.33;;;;;;;17.10;45.52;94719.75;5098916;28;20266;-81
2022/05/02 09:21:00;;;;;;;8.00;3.50;;;;;;;17.27;43.61;94740.91;5099599;28;20180;-80
2022/05/02 09:23:35;;;;;;;7.40;4.33;;;;;;;17.01;45.16;94728.44;5075467;28;20189;-79
2022/05/02 09:26:06;;;;;;;8.23;3.50;;;;;;;17.14;44.00;94706.72;5093249;28;20176;-80
2022/05/02 09:28:50;;;;;;;5.75;3.80;;;;;;;17.39;42.94;94708.75;5097095;28;20178;-81
2022/05/02 09:31:41;;;;;;;5.27;3.77;;;;;;;17.08;43.72;94710.41;5100097;28;20213;-82
2022/05/02 09:34:45;;;;;;;5.80;4.38;;;;;;;16.92;43.56;94710.31;5095782;28;20190;-80
2022/05/02 09:37:36;;;;;;;5.93;3.63;;;;;;;17.24;43.60;94704.16;5100233;28;20686;-80
2022/05/02 09:40:04;;;;;;;4.65;3.40;;;;;;;17.49;42.11;94703.50;5082496;28;20194;-79
2022/05/02 09:43:07;;;;;;;4.72;3.40;;;;;;;17.50;41.57;94710.44;5100297;28;20685;-80
2022/05/02 09:49:47;;;;;;;7.13;2.90;;;;;;;17.51;39.44;94698.72;5094030;28;20983;-80
2022/05/02 09:52:15;;;;;;;5.00;2.70;;;;;;;17.12;39.60;94680.41;5041902;28;20995;-81
2022/05/02 09:58:35;;;;;;;12.73;3.22;;;;;;;16.77;40.90;94672.97;5097523;28;20916;-81
2022/05/02 10:01:13;;;;;;;3.25;2.67;;;;;;;16.88;39.28;94671.16;5098356;28;20189;-81
2022/05/02 10:03:39;;;;;;;3.47;3.17;;;;;;;16.86;40.07;94675.94;5093189;28;20176;-81
2022/05/02 10:06:16;;;;;;;5.63;3.20;;;;;;;16.79;40.62;94686.78;5097032;28;20251;-81
2022/05/02 10:08:49;;;;;;;4.25;2.97;;;;;;;16.79;41.21;94678.78;5095566;28;20185;-80
2022/05/02 10:11:18;;;;;;;3.53;2.60;;;;;;;16.84;39.66;94667.41;5097821;28;20170;-80
2022/05/02 10:13:55;;;;;;;5.10;2.30;;;;;;;16.59;40.14;94652.84;5099245;28;20170;-81
2022/05/02 10:16:40;;;;;;;5.10;2.60;;;;;;;16.42;40.96;94643.38;5087232;28;20196;-80
2022/05/02 10:19:29;;;;;;;5.53;2.80;;;;;;;16.56;40.06;94671.13;5097277;28;20253;-80
2022/05/02 10:22:28;;;;;;;2.85;2.50;;;;;;;16.56;40.04;94674.59;5092274;28;20205;-80
2022/05/02 10:25:00;;;;;;;3.30;2.60;;;;;;;16.53;40.15;94677.75;5101011;28;20178;-82
2022/05/02 10:27:35;;;;;;;3.73;2.53;;;;;;;16.53;40.50;94671.63;5103603;28;20572;-81
2022/05/02 10:30:11;;;;;;;2.90;2.57;;;;;;;16.18;39.82;94682.69;5102273;28;20262;-79
2022/05/02 10:32:46;;;;;;;4.30;3.50;;;;;;;15.91;41.02;94647.38;5101147;28;20161;-79
2022/05/02 10:35:13;;;;;;;3.77;3.17;;;;;;;16.12;40.22;94671.22;5102394;28;20260;-80
2022/05/02 10:37:42;;;;;;;6.17;2.47;;;;;;;16.09;40.91;94663.75;5108065;28;20181;-80
2022/05/02 10:40:16;;;;;;;6.30;2.80;;;;;;;16.32;40.68;94665.34;5102906;28;20176;-80
2022/05/02 10:42:48;;;;;;;4.90;2.83;;;;;;;16.50;39.75;94664.19;5108884;28;20177;-80
2022/05/02 10:45:14;;;;;;;2.93;2.63;;;;;;;16.67;39.43;94661.44;5108310;28;20172;-80
2022/05/02 10:47:55;;;;;;;3.70;2.70;;;;;;;16.74;39.57;94638.09;5102971;28;20169;-80
2022/05/02 10:50:27;;;;;;;3.97;2.30;;;;;;;16.83;38.87;94652.53;5101499;28;20170;-80
2022/05/02 10:53:28;;;;;;;4.27;2.10;;;;;;;16.87;38.76;94669.56;5105104;28;20185;-80
2022/05/02 10:56:19;;;;;;;5.27;2.23;;;;;;;16.75;39.01;94642.34;5100079;28;20189;-81
2022/05/02 10:58:46;;;;;;;3.63;2.38;;;;;;;17.10;39.27;94647.13;5101261;28;20165;-81
2022/05/02 11:01:22;;;;;;;17.57;2.70;;;;;;;17.08;39.41;94654.56;5095841;28;20185;-81
2022/05/02 11:04:14;;;;;;;3.83;2.53;;;;;;;17.24;39.56;94651.72;5093931;28;20211;-81
2022/05/02 11:07:01;;;;;;;3.45;2.63;;;;;;;17.42;39.18;94653.16;5100081;28;20197;-83
2022/05/02 11:09:39;;;;;;;3.45;2.08;;;;;;;17.25;37.84;94655.19;5099644;28;20172;-81
2022/05/02 11:12:10;;;;;;;6.28;2.42;;;;;;;17.18;37.97;94651.97;5097126;28;22017;-79
2022/05/02 11:15:01;;;;;;;3.45;2.25;;;;;;;17.04;38.46;94650.81;5091273;28;20235;-81
2022/05/02 11:17:57;;;;;;;3.97;1.90;;;;;;;17.05;38.16;94650.53;5103490;28;20174;-80
2022/05/02 11:20:42;;;;;;;4.50;1.80;;;;;;;16.82;37.81;94627.78;5102727;28;20165;-82
2022/05/02 11:23:17;;;;;;;2.33;2.10;;;;;;;17.07;39.00;94634.31;5098028;28;20170;-83
2022/05/02 11:26:22;;;;;;;2.83;2.43;;;;;;;16.97;39.75;94640.38;5098664;28;20181;-81
2022/05/02 11:28:48;;;;;;;2.80;2.20;;;;;;;17.05;39.90;94655.84;5080728;28;20660;-81
2022/05/02 11:31:22;;;;;;;4.75;2.25;;;;;;;17.07;40.77;94650.28;5105041;28;20242;-83
2022/05/02 11:34:05;;;;;;;3.05;2.13;;;;;;;16.90;40.53;94629.97;5100375;28;20577;-81
2022/05/02 11:36:33;;;;;;;2.92;2.22;;;;;;;16.26;41.11;94596.47;5100792;28;20197;-80
2022/05/02 11:39:05;;;;;;;3.90;2.78;;;;;;;16.56;42.15;94631.28;5103695;28;20172;-80
2022/05/02 11:41:32;;;;;;;3.43;2.90;;;;;;;16.69;42.61;94652.13;5097238;28;20234;-82
2022/05/02 11:44:12;;;;;;;5.67;3.10;;;;;;;16.67;41.44;94619.69;5103273;28;20183;-82
2022/05/02 11:47:07;;;;;;;4.80;2.57;;;;;;;16.86;41.92;94644.03;5096766;28;20230;-81
2022/05/02 11:49:57;;;;;;;2.92;2.00;;;;;;;16.49;42.94;94642.13;5074470;28;20186;-81
2022/05/02 11:52:35;;;;;;;5.30;2.80;;;;;;;16.01;44.70;94624.38;5101703;28;20644;-82
2022/05/02 11:55:03;;;;;;;3.13;2.50;;;;;;;16.36;44.45;94644.38;5098254;28;20233;-83
2022/05/02 11:57:49;;;;;;;2.57;2.37;;;;;;;16.42;43.59;94644.19;5095346;28;20174;-81
2022/05/02 12:00:15;;;;;;;4.37;2.50;;;;;;;16.33;42.91;94635.06;5096516;28;20176;-82
2022/05/02 12:02:51;;;;;;;3.07;2.60;;;;;;;16.34;43.39;94630.56;5097257;28;20180;-86
2022/05/02 12:05:31;;;;;;;3.13;2.20;;;;;;;16.26;42.74;94607.88;5100787;28;20168;-81
2022/05/02 12:08:08;;;;;;;3.67;2.30;;;;;;;16.49;42.24;94633.34;5100973;28;20248;-82
2022/05/02 12:10:48;;;;;;;3.95;2.50;;;;;;;16.36;42.63;94637.19;5102983;28;20221;-83
2022/05/02 12:13:16;;;;;;;3.77;2.60;;;;;;;16.42;42.40;94632.75;5093999;28;20154;-80
2022/05/02 12:16:01;;;;;;;3.47;2.67;;;;;;;16.40;42.39;94632.19;5099941;28;20248;-81
2022/05/02 12:18:53;;;;;;;3.17;2.50;;;;;;;16.45;43.21;94621.59;5106630;28;20173;-81
2022/05/02 12:21:33;;;;;;;3.90;2.63;;;;;;;16.45;41.47;94626.91;5098338;28;20181;-81
2022/05/02 12:24:03;;;;;;;5.33;2.60;;;;;;;16.45;42.15;94626.91;5093944;28;20174;-84